HSPN

Port Sudan New International Airport

Port Sudan, Sudan
TAF HSPN 201700Z 2018/2124 05008G18KT CAVOK FM202000 31007G17KT PROB30 TEMPO 2106/2111 4000 HZ FM211100 04010G20KT BECMG 2119/2121 31007G17KT
Issued Valid From Valid To
Apr-20 @ 17:00 UTC
(2 hours ago)
Apr-20 @ 18:00 UTC
(35 minutes ago)
Apr-22 @ 00:00 UTC
(-1 days ago)
Apr-20 @ 18:00 to Apr-20 @ 20:00
TAF HSPN 201700Z 2018/2124 05008G18KT CAVOK
Wind Visibility Clouds Conditions
50° at 8 knots
 Gusting to 18 knots
10,000+ meters
  • No significant clouds
From Apr-20 @ 20:00 to Apr-21 @ 11:00
FM202000 31007G17KT
Wind
310° at 7 knots
 Gusting to 17 knots
Temporary  (Probability 30%) Apr-21 @ 06:00 to Apr-21 @ 11:00
PROB30 TEMPO 2106/2111 4000 HZ
Visibility Conditions
4,007 meters
  • Haze
From Apr-21 @ 11:00 to Apr-21 @ 19:00
FM211100 04010G20KT
Wind
40° at 10 knots
 Gusting to 20 knots
Becoming Apr-21 @ 19:00 to Apr-22 @ 00:00
BECMG 2119/2121 31007G17KT
Wind
310° at 7 knots
 Gusting to 17 knots
TAF HSPN 201700Z 2018/2124 05008G18KT CAVOK FM202000 31007G17KT PROB30 TEMPO 2106/2111 4000 HZ FM211100 04010G20KT BECMG 2119/2121 31007G17KT
Issued Apr-20 @ 17:00 UTC
(2 hours ago)
Valid From Apr-20 @ 18:00 UTC
(35 minutes ago)
Valid To Apr-22 @ 00:00 UTC
(-1 days ago)
Apr-20 @ 18:00 - Apr-20 @ 20:00
Wind Visibility
50° at 8 knots
 Gusting to 18 knots
10,000+ meters
Clouds
  • No significant clouds
Conditions
From Apr-20 @ 20:00 - Apr-21 @ 11:00
Wind
310° at 7 knots
 Gusting to 17 knots
Probability 30% Temporary Apr-21 @ 06:00 - Apr-21 @ 11:00
Conditions
  • Haze
From Apr-21 @ 11:00 - Apr-21 @ 19:00
Wind
40° at 10 knots
 Gusting to 20 knots
Becoming Apr-21 @ 19:00 - Apr-22 @ 00:00
Wind
310° at 7 knots
 Gusting to 17 knots